Time;durP1;ratioP1;P1;durP2;ratioP2;P2;SDS_P1;SDS_P2;PMS_P1;PMS_P2;Temp;Humidity;BMP_temperature;BMP_pressure;BME280_temperature;BME280_humidity;BME280_pressure;Samples;Min_cycle;Max_cycle;Signal;HPM_P1;HPM_P2
2021/06/22 00:01:46;;;;;;;18.73;5.75;;;13.20;99.90;;;;;;6259340;22;20020;-84
2021/06/22 00:04:14;;;;;;;17.90;5.18;;;13.20;99.90;;;;;;6228970;23;20024;-84
2021/06/22 00:06:43;;;;;;;15.75;5.03;;;13.20;99.90;;;;;;6229915;23;20016;-82
2021/06/22 00:09:12;;;;;;;19.30;4.15;;;13.20;99.90;;;;;;6229694;23;20020;-84
2021/06/22 00:11:40;;;;;;;13.43;5.47;;;13.20;99.90;;;;;;6255076;23;20024;-82
2021/06/22 00:14:08;;;;;;;17.45;5.40;;;13.20;99.90;;;;;;6256365;23;20020;-83
2021/06/22 00:16:36;;;;;;;14.07;5.55;;;13.20;99.90;;;;;;6229068;23;20020;-82
2021/06/22 00:19:04;;;;;;;13.77;3.92;;;13.20;99.90;;;;;;6229884;23;20126;-83
2021/06/22 00:21:34;;;;;;;31.00;7.75;;;11.90;99.90;;;;;;6227718;23;20026;-82
2021/06/22 00:24:02;;;;;;;16.30;4.07;;;13.20;99.90;;;;;;6266572;23;20023;-81
2021/06/22 00:26:30;;;;;;;15.27;4.80;;;13.10;99.90;;;;;;6206764;23;20030;-83
2021/06/22 00:28:59;;;;;;;18.35;4.47;;;13.20;99.90;;;;;;6203126;23;20026;-83
2021/06/22 00:31:27;;;;;;;13.30;4.40;;;13.20;99.90;;;;;;6268120;23;20024;-81
2021/06/22 00:33:55;;;;;;;18.27;5.63;;;13.10;99.90;;;;;;6229194;23;20028;-84
2021/06/22 00:36:24;;;;;;;14.43;4.43;;;13.10;99.90;;;;;;6254816;23;20461;-81
2021/06/22 00:38:52;;;;;;;15.80;4.63;;;13.10;99.90;;;;;;6230593;23;20034;-82
2021/06/22 00:41:21;;;;;;;14.80;6.07;;;13.10;99.90;;;;;;6230511;23;20022;-83
2021/06/22 00:43:50;;;;;;;11.05;5.82;;;13.10;99.90;;;;;;6226914;23;20099;-83
2021/06/22 00:46:20;;;;;;;22.83;6.72;;;13.10;99.90;;;;;;6224880;23;20018;-82
2021/06/22 00:48:56;;;;;;;22.55;6.82;;;13.10;99.90;;;;;;6228381;23;20525;-82
2021/06/22 00:51:49;;;;;;;18.55;7.20;;;13.10;99.90;;;;;;6207067;23;20020;-82
2021/06/22 00:54:21;;;;;;;17.70;5.55;;;13.10;99.90;;;;;;6227535;23;20027;-82
2021/06/22 00:56:50;;;;;;;20.00;5.97;;;13.10;99.90;;;;;;6207295;23;20028;-82
2021/06/22 00:59:19;;;;;;;17.27;5.82;;;13.00;99.90;;;;;;6231424;23;20024;-83
2021/06/22 01:01:50;;;;;;;17.83;6.75;;;13.00;99.90;;;;;;6230506;23;20023;-82
2021/06/22 01:04:19;;;;;;;16.98;6.75;;;13.00;99.90;;;;;;6208934;23;20712;-83
2021/06/22 01:07:05;;;;;;;23.15;7.30;;;12.90;99.90;;;;;;6211299;23;20016;-81
2021/06/22 01:09:33;;;;;;;29.30;8.00;;;12.90;99.90;;;;;;6206819;23;20034;-84
2021/06/22 01:12:02;;;;;;;24.63;6.75;;;12.90;99.90;;;;;;6229679;22;20406;-82
2021/06/22 01:14:32;;;;;;;22.98;7.22;;;12.90;99.90;;;;;;6231066;23;20031;-82
2021/06/22 01:17:02;;;;;;;15.45;5.75;;;12.80;99.90;;;;;;6229155;23;20026;-83
2021/06/22 01:19:32;;;;;;;22.13;6.07;;;12.80;99.90;;;;;;6257176;23;20041;-82
2021/06/22 01:22:01;;;;;;;28.15;7.65;;;12.80;99.90;;;;;;6227929;23;20020;-83
2021/06/22 01:24:42;;;;;;;18.42;5.85;;;12.80;99.90;;;;;;6222905;23;20016;-83
2021/06/22 01:27:14;;;;;;;;;;;12.80;99.90;;;;;;6254991;23;20016;-82
2021/06/22 01:29:42;;;;;;;17.30;7.20;;;12.80;99.90;;;;;;6266428;23;19919;-82
2021/06/22 01:32:10;;;;;;;15.55;5.93;;;12.80;99.90;;;;;;6257096;23;20016;-83
2021/06/22 01:34:42;;;;;;;19.88;5.35;;;12.80;99.90;;;;;;6230563;23;20016;-82
2021/06/22 01:37:12;;;;;;;16.40;5.50;;;12.70;99.90;;;;;;6230751;23;20016;-82
2021/06/22 01:39:44;;;;;;;19.60;6.72;;;12.70;99.90;;;;;;6222221;23;20016;-82
2021/06/22 01:42:13;;;;;;;21.48;6.28;;;12.70;99.90;;;;;;6226946;23;20026;-82
2021/06/22 01:44:52;;;;;;;15.50;6.45;;;12.70;99.90;;;;;;6202745;23;20024;-81
2021/06/22 01:47:23;;;;;;;17.52;6.32;;;12.70;99.90;;;;;;6205173;23;20020;-82
2021/06/22 01:50:03;;;;;;;16.50;5.85;;;12.70;99.90;;;;;;6230994;23;20020;-82
2021/06/22 01:52:35;;;;;;;17.80;5.90;;;12.70;99.90;;;;;;6206313;23;20020;-82
2021/06/22 01:57:55;;;;;;;14.57;5.72;;;12.70;99.90;;;;;;6229977;23;20038;-82
2021/06/22 02:00:56;;;;;;;26.58;7.95;;;12.60;99.90;;;;;;6236970;22;20822;-82
2021/06/22 02:03:31;;;;;;;12.98;5.68;;;12.60;99.90;;;;;;6231511;23;20016;-82
2021/06/22 02:06:00;;;;;;;21.52;7.97;;;12.60;99.90;;;;;;6241979;23;20020;-82
2021/06/22 02:08:31;;;;;;;17.90;6.68;;;12.60;99.90;;;;;;6230469;23;20020;-82
2021/06/22 02:11:00;;;;;;;16.05;6.63;;;12.60;99.90;;;;;;6256252;23;20016;-83
2021/06/22 02:13:50;;;;;;;19.67;7.70;;;12.50;99.90;;;;;;6257394;22;20020;-83
2021/06/22 02:16:23;;;;;;;16.25;7.18;;;12.50;99.90;;;;;;6257671;23;20016;-82
2021/06/22 02:18:55;;;;;;;18.38;6.13;;;12.50;99.90;;;;;;6258658;23;20019;-84
2021/06/22 02:21:25;;;;;;;20.77;7.22;;;12.50;99.90;;;;;;6232034;23;20020;-82
2021/06/22 02:23:54;;;;;;;24.25;7.40;;;12.50;99.90;;;;;;6208202;23;20020;-84
2021/06/22 02:26:25;;;;;;;19.95;7.57;;;12.50;99.90;;;;;;6233647;23;20039;-82
2021/06/22 02:28:54;;;;;;;21.42;8.57;;;12.40;99.90;;;;;;6269889;23;20020;-82
2021/06/22 02:31:24;;;;;;;18.10;7.43;;;12.40;99.90;;;;;;6232567;23;20024;-83
2021/06/22 02:33:55;;;;;;;20.55;8.23;;;12.40;99.90;;;;;;6207922;23;20020;-83
2021/06/22 02:36:27;;;;;;;29.35;9.68;;;12.40;99.90;;;;;;6230746;23;20362;-83
2021/06/22 02:38:56;;;;;;;18.40;7.30;;;12.40;99.90;;;;;;6255878;23;20027;-82
2021/06/22 02:41:26;;;;;;;33.17;8.93;;;12.30;99.90;;;;;;6230338;23;20039;-83
2021/06/22 02:44:02;;;;;;;20.80;7.60;;;12.30;99.90;;;;;;6258133;23;20026;-83
2021/06/22 02:46:37;;;;;;;19.17;8.98;;;12.30;99.90;;;;;;6229634;23;20020;-82
2021/06/22 02:49:06;;;;;;;24.40;10.13;;;12.30;99.90;;;;;;6230812;23;20027;-83
2021/06/22 02:51:39;;;;;;;20.23;9.25;;;12.30;99.90;;;;;;6205835;23;20027;-84
2021/06/22 02:54:07;;;;;;;18.25;7.65;;;12.40;99.90;;;;;;6228659;23;20024;-82
2021/06/22 02:56:39;;;;;;;23.17;9.52;;;12.30;99.90;;;;;;6232165;23;20024;-82
2021/06/22 02:59:11;;;;;;;23.30;8.57;;;12.30;99.90;;;;;;6230484;23;20018;-83
2021/06/22 03:01:41;;;;;;;25.77;9.68;;;12.30;99.90;;;;;;6233141;23;20020;-83
2021/06/22 03:04:10;;;;;;;16.58;7.72;;;12.30;99.90;;;;;;6229375;23;20016;-83
2021/06/22 03:06:40;;;;;;;27.65;8.65;;;12.30;99.90;;;;;;6228778;23;20020;-82
2021/06/22 03:09:14;;;;;;;23.65;9.20;;;12.30;99.90;;;;;;6255569;23;20024;-83
2021/06/22 03:11:50;;;;;;;20.70;8.63;;;12.20;99.90;;;;;;6227637;23;20022;-82
2021/06/22 03:14:21;;;;;;;24.30;10.18;;;12.20;99.90;;;;;;6195457;23;20024;-83
2021/06/22 03:17:12;;;;;;;24.55;9.50;;;12.20;99.90;;;;;;6199616;23;20021;-81
2021/06/22 03:19:43;;;;;;;27.70;9.48;;;12.20;99.90;;;;;;6225387;23;20030;-83
2021/06/22 03:22:15;;;;;;;23.75;9.45;;;12.20;99.90;;;;;;6224482;23;20013;-83
2021/06/22 03:24:46;;;;;;;25.90;8.85;;;12.20;99.90;;;;;;6199865;23;20021;-82
2021/06/22 03:27:14;;;;;;;19.20;7.93;;;12.20;99.90;;;;;;6225165;23;20027;-82
2021/06/22 03:30:02;;;;;;;23.52;8.77;;;12.20;99.90;;;;;;6225132;23;20022;-81
2021/06/22 03:32:31;;;;;;;25.55;9.20;;;12.20;99.90;;;;;;6224404;23;20017;-82
2021/06/22 03:34:59;;;;;;;25.52;8.85;;;12.20;99.90;;;;;;6225989;23;20027;-82
2021/06/22 03:37:27;;;;;;;23.63;9.15;;;12.20;99.90;;;;;;6226306;23;20016;-82
2021/06/22 03:39:57;;;;;;;26.38;9.23;;;12.20;99.90;;;;;;6223813;23;20580;-82
2021/06/22 03:42:25;;;;;;;27.05;10.30;;;12.20;99.90;;;;;;6175754;23;20473;-84
2021/06/22 03:44:56;;;;;;;23.50;9.33;;;12.20;99.90;;;;;;6225709;23;20134;-83
2021/06/22 03:47:25;;;;;;;23.27;11.18;;;12.20;99.90;;;;;;6225671;23;20016;-82
2021/06/22 03:49:55;;;;;;;26.30;9.20;;;12.20;99.90;;;;;;6225158;23;20021;-80
2021/06/22 03:52:23;;;;;;;21.27;9.60;;;12.20;99.90;;;;;;6226946;23;20020;-82
2021/06/22 03:54:52;;;;;;;20.50;9.25;;;12.20;99.90;;;;;;6227561;23;20027;-82
2021/06/22 03:57:22;;;;;;;16.27;7.85;;;12.20;99.90;;;;;;6202353;23;20091;-82
2021/06/22 04:00:13;;;;;;;20.58;9.77;;;12.20;99.90;;;;;;6204074;23;20027;-82
2021/06/22 04:02:44;;;;;;;20.50;9.38;;;12.20;99.90;;;;;;6233147;23;20023;-83
2021/06/22 04:05:18;;;;;;;20.88;10.27;;;12.20;99.90;;;;;;6228423;23;20023;-82
2021/06/22 04:07:58;;;;;;;31.45;12.23;;;12.20;99.90;;;;;;6226552;23;20021;-83
2021/06/22 04:10:28;;;;;;;21.95;8.85;;;12.20;99.90;;;;;;6228208;23;20023;-83
2021/06/22 04:12:58;;;;;;;25.20;8.93;;;12.20;99.90;;;;;;6229316;23;20021;-84
2021/06/22 04:15:27;;;;;;;25.35;8.55;;;12.20;99.90;;;;;;6226756;23;20017;-84
2021/06/22 04:18:05;;;;;;;24.63;10.73;;;12.20;99.90;;;;;;6227311;23;20046;-85
2021/06/22 04:20:36;;;;;;;21.67;8.30;;;12.20;99.90;;;;;;6226655;23;20020;-83
2021/06/22 04:23:09;;;;;;;19.90;8.02;;;12.20;99.90;;;;;;6226533;23;20020;-84
2021/06/22 04:25:38;;;;;;;21.83;9.25;;;12.20;99.90;;;;;;6227383;23;20034;-84
2021/06/22 04:28:09;;;;;;;21.45;10.05;;;12.10;99.90;;;;;;6201774;23;20016;-82
2021/06/22 04:30:38;;;;;;;24.95;10.35;;;12.20;99.90;;;;;;6226157;23;20021;-83
2021/06/22 04:33:07;;;;;;;22.30;9.02;;;12.20;99.90;;;;;;6226405;23;20023;-83
2021/06/22 04:35:36;;;;;;;21.35;9.13;;;12.10;99.90;;;;;;6226538;23;20021;-83
2021/06/22 04:38:05;;;;;;;24.50;10.82;;;12.20;99.90;;;;;;6201971;23;20033;-82
2021/06/22 04:40:37;;;;;;;17.90;8.93;;;12.20;99.90;;;;;;6202063;23;20025;-82
2021/06/22 04:43:06;;;;;;;24.08;9.50;;;12.30;99.90;;;;;;6226895;23;20016;-83
2021/06/22 04:45:35;;;;;;;24.00;9.07;;;12.20;99.90;;;;;;6228145;23;20016;-82
2021/06/22 04:48:05;;;;;;;21.50;11.30;;;12.20;99.90;;;;;;6202332;23;20039;-82
2021/06/22 04:50:33;;;;;;;26.50;9.30;;;12.20;99.90;;;;;;6229266;23;20034;-81
2021/06/22 04:53:02;;;;;;;26.65;9.23;;;12.20;99.90;;;;;;6238021;23;20024;-82
2021/06/22 04:55:30;;;;;;;22.77;9.45;;;12.20;99.90;;;;;;6199536;23;20020;-83
2021/06/22 04:58:00;;;;;;;24.80;10.13;;;12.20;99.90;;;;;;6225287;23;20020;-80
2021/06/22 05:00:29;;;;;;;21.58;8.63;;;12.20;99.90;;;;;;6199539;23;20025;-82
2021/06/22 05:03:01;;;;;;;21.20;9.30;;;12.30;99.90;;;;;;6224650;23;20031;-82
2021/06/22 05:05:30;;;;;;;27.35;10.80;;;12.30;99.90;;;;;;6227478;23;20029;-84
2021/06/22 05:07:58;;;;;;;23.08;9.73;;;12.30;99.90;;;;;;6226934;23;20031;-83
2021/06/22 05:10:27;;;;;;;19.92;9.38;;;12.30;99.90;;;;;;6237364;23;20030;-83
2021/06/22 05:12:56;;;;;;;19.60;10.63;;;12.30;99.90;;;;;;6231483;23;20649;-84
2021/06/22 05:15:26;;;;;;;23.65;10.05;;;12.30;99.90;;;;;;6226252;23;20028;-83
2021/06/22 05:17:54;;;;;;;32.17;10.98;;;12.30;99.90;;;;;;6225236;23;20016;-84
2021/06/22 05:20:23;;;;;;;23.67;9.82;;;12.30;99.90;;;;;;6199657;23;20030;-84
2021/06/22 05:22:51;;;;;;;23.25;10.38;;;12.30;99.90;;;;;;6224737;23;20025;-83
2021/06/22 05:25:19;;;;;;;30.35;12.38;;;12.30;99.90;;;;;;6202323;23;20021;-84
2021/06/22 05:27:48;;;;;;;25.20;9.60;;;12.30;99.90;;;;;;6227504;23;20017;-82
2021/06/22 05:30:18;;;;;;;24.20;10.40;;;12.30;99.90;;;;;;6225353;23;20013;-82
2021/06/22 05:32:46;;;;;;;27.98;11.90;;;11.70;99.90;;;;;;6226795;23;20480;-82
2021/06/22 05:35:14;;;;;;;19.75;9.20;;;12.30;99.90;;;;;;6238970;23;20024;-84
2021/06/22 05:37:43;;;;;;;22.48;12.23;;;12.40;99.90;;;;;;6237699;23;20027;-83
2021/06/22 05:40:11;;;;;;;22.50;10.45;;;12.40;99.90;;;;;;6226340;23;20031;-83
2021/06/22 05:42:41;;;;;;;26.90;11.18;;;12.30;99.90;;;;;;6236985;23;20025;-81
2021/06/22 05:45:09;;;;;;;19.40;10.75;;;12.40;99.90;;;;;;6236312;23;20028;-82
2021/06/22 05:47:37;;;;;;;24.15;10.25;;;12.40;99.90;;;;;;6223815;23;20017;-83
2021/06/22 05:50:06;;;;;;;25.52;11.55;;;12.40;99.90;;;;;;6236071;23;20017;-82
2021/06/22 05:52:35;;;;;;;28.67;10.68;;;12.50;99.90;;;;;;6225407;23;20020;-81
2021/06/22 05:55:16;;;;;;;24.35;10.10;;;12.50;99.90;;;;;;6226988;23;20043;-82
2021/06/22 05:57:49;;;;;;;22.38;11.15;;;12.50;99.90;;;;;;6201044;23;20031;-83
2021/06/22 06:00:21;;;;;;;22.55;10.50;;;12.50;99.90;;;;;;6198491;23;20027;-81
2021/06/22 06:02:55;;;;;;;23.67;9.85;;;12.50;99.90;;;;;;6176859;23;20030;-81
2021/06/22 06:05:24;;;;;;;27.73;10.27;;;12.50;99.90;;;;;;6225762;23;20021;-82
2021/06/22 06:07:55;;;;;;;21.50;10.30;;;12.50;99.90;;;;;;6224586;23;20027;-81
2021/06/22 06:10:49;;;;;;;20.23;9.77;;;12.50;99.90;;;;;;6222009;23;20075;-83
2021/06/22 06:13:17;;;;;;;23.23;10.88;;;12.60;99.90;;;;;;6221972;23;20025;-82
2021/06/22 06:15:45;;;;;;;28.55;10.82;;;12.50;99.90;;;;;;6236807;23;20020;-83
2021/06/22 06:18:14;;;;;;;24.05;12.38;;;12.60;99.90;;;;;;6198698;23;20035;-83
2021/06/22 06:20:42;;;;;;;26.60;11.50;;;12.60;99.90;;;;;;6224227;23;20355;-82
2021/06/22 06:23:10;;;;;;;25.85;11.43;;;12.60;99.90;;;;;;6201221;23;20024;-82
2021/06/22 06:25:39;;;;;;;26.92;11.35;;;12.60;99.90;;;;;;6228303;23;20025;-82
2021/06/22 06:28:19;;;;;;;20.85;9.48;;;12.60;99.90;;;;;;6224110;23;20031;-83
2021/06/22 06:30:47;;;;;;;21.02;11.35;;;12.60;99.90;;;;;;6225020;23;20017;-83
2021/06/22 06:33:16;;;;;;;21.30;10.43;;;12.60;99.90;;;;;;6226523;23;20020;-82
2021/06/22 06:35:44;;;;;;;22.60;9.65;;;12.70;99.90;;;;;;6224538;23;20016;-83
2021/06/22 06:38:12;;;;;;;24.60;10.40;;;12.70;99.90;;;;;;6223601;23;20021;-82
2021/06/22 06:40:40;;;;;;;25.13;11.32;;;12.70;99.90;;;;;;6223870;23;20032;-82
2021/06/22 06:43:08;;;;;;;22.33;9.43;;;12.70;99.90;;;;;;6224550;23;20020;-82
2021/06/22 06:45:38;;;;;;;23.80;10.13;;;12.80;99.90;;;;;;6233990;23;20038;-85
2021/06/22 06:48:07;;;;;;;19.60;10.00;;;12.90;99.90;;;;;;6227166;23;20023;-82
2021/06/22 06:50:35;;;;;;;19.45;9.88;;;12.90;99.90;;;;;;6222640;23;20319;-81
2021/06/22 06:53:04;;;;;;;27.30;11.02;;;13.00;99.90;;;;;;6234298;23;20024;-82
2021/06/22 06:55:38;;;;;;;23.48;9.45;;;13.00;99.90;;;;;;6220813;23;20016;-80
2021/06/22 06:58:06;;;;;;;23.17;10.95;;;13.10;99.90;;;;;;6223610;23;20024;-80
2021/06/22 07:00:37;;;;;;;19.30;10.15;;;13.10;99.90;;;;;;6193314;23;20024;-81
2021/06/22 07:03:07;;;;;;;24.02;9.85;;;13.20;99.90;;;;;;6194649;23;20017;-81
2021/06/22 07:05:36;;;;;;;24.92;10.10;;;13.20;99.90;;;;;;6220063;23;20017;-81
2021/06/22 07:08:06;;;;;;;19.73;8.35;;;13.20;99.90;;;;;;6220186;23;20020;-80
2021/06/22 07:10:38;;;;;;;30.02;11.50;;;13.20;99.90;;;;;;6220013;23;20021;-80
2021/06/22 07:13:14;;;;;;;19.30;8.65;;;13.20;99.90;;;;;;6195479;23;20013;-80
2021/06/22 07:15:43;;;;;;;38.95;10.98;;;13.20;99.90;;;;;;6170730;23;20058;-80
2021/06/22 07:18:11;;;;;;;22.42;9.38;;;13.20;99.90;;;;;;6196647;23;20021;-80
2021/06/22 07:20:42;;;;;;;29.90;10.88;;;13.20;99.90;;;;;;6223505;23;20024;-80
2021/06/22 07:23:24;;;;;;;25.45;10.45;;;13.20;99.90;;;;;;6196063;23;20020;-81
2021/06/22 07:25:56;;;;;;;21.77;9.13;;;13.20;99.90;;;;;;6195554;23;20026;-80
2021/06/22 07:28:24;;;;;;;19.20;8.05;;;13.20;99.90;;;;;;6234166;23;20606;-81
2021/06/22 07:30:53;;;;;;;23.95;8.45;;;13.20;99.90;;;;;;6172186;23;20012;-83
2021/06/22 07:33:21;;;;;;;17.55;8.00;;;13.20;99.90;;;;;;6171340;23;20138;-80
2021/06/22 07:35:50;;;;;;;17.98;8.00;;;13.20;99.90;;;;;;6197004;23;20027;-80
2021/06/22 07:38:18;;;;;;;22.38;9.20;;;13.20;99.90;;;;;;6196120;23;20023;-80
2021/06/22 07:40:46;;;;;;;22.67;7.78;;;13.20;99.90;;;;;;6147767;23;20021;-81
2021/06/22 07:43:16;;;;;;;18.38;8.60;;;13.30;99.90;;;;;;6226302;23;20017;-81
2021/06/22 07:45:44;;;;;;;16.63;8.02;;;13.30;99.90;;;;;;6222488;23;20020;-81
2021/06/22 07:48:13;;;;;;;19.10;8.57;;;13.30;99.90;;;;;;6221818;23;20191;-80
2021/06/22 07:50:41;;;;;;;15.35;7.82;;;12.80;99.90;;;;;;6194892;23;20024;-81
2021/06/22 07:53:09;;;;;;;16.67;7.75;;;13.40;99.90;;;;;;6194253;23;20272;-88
2021/06/22 07:55:43;;;;;;;17.95;8.27;;;13.40;99.90;;;;;;6218814;23;20023;-90
2021/06/22 07:58:20;;;;;;;16.25;7.93;;;13.40;99.90;;;;;;6194788;23;20021;-89
2021/06/22 08:00:59;;;;;;;25.13;7.65;;;13.50;99.90;;;;;;6217479;23;20046;-89
2021/06/22 08:03:29;;;;;;;21.17;7.65;;;13.70;99.90;;;;;;6217482;23;20123;-88
2021/06/22 08:05:59;;;;;;;24.80;7.97;;;13.70;99.90;;;;;;6195546;23;20304;-89
2021/06/22 08:08:30;;;;;;;22.98;8.98;;;13.80;99.90;;;;;;6217024;23;20025;-89
2021/06/22 08:11:02;;;;;;;17.88;7.50;;;13.80;99.90;;;;;;6176259;23;20016;-89
2021/06/22 08:13:30;;;;;;;16.48;7.32;;;13.90;99.90;;;;;;6221499;22;20026;-89
2021/06/22 08:16:01;;;;;;;17.23;7.18;;;14.00;99.90;;;;;;6252978;22;20435;-89
2021/06/22 08:18:33;;;;;;;18.35;7.25;;;14.10;99.90;;;;;;6230461;22;20027;-91
2021/06/22 08:21:34;;;;;;;20.35;7.28;;;14.10;99.90;;;;;;6243856;22;20033;-90
2021/06/22 08:24:12;;;;;;;20.73;8.32;;;14.10;99.90;;;;;;6251210;22;20022;-89
2021/06/22 08:26:41;;;;;;;15.40;6.75;;;14.10;99.90;;;;;;6252634;22;20024;-91
2021/06/22 08:29:11;;;;;;;20.53;7.23;;;14.10;99.90;;;;;;6231991;22;20054;-90
2021/06/22 08:31:40;;;;;;;18.77;6.88;;;14.10;99.90;;;;;;6207940;22;20253;-89
2021/06/22 08:34:20;;;;;;;18.20;6.97;;;14.00;99.90;;;;;;6237154;22;20024;-92
2021/06/22 08:36:52;;;;;;;17.80;6.47;;;14.00;99.90;;;;;;6200015;22;20020;-89
2021/06/22 08:39:23;;;;;;;14.87;5.70;;;13.90;99.90;;;;;;6229989;22;20455;-91
2021/06/22 08:42:10;;;;;;;16.77;6.72;;;13.90;99.90;;;;;;6235514;22;20020;-90
2021/06/22 08:44:52;;;;;;;24.33;7.07;;;13.90;99.90;;;;;;6288381;22;20020;-91
2021/06/22 08:47:24;;;;;;;18.73;6.90;;;13.90;99.90;;;;;;6232911;22;20041;-92
2021/06/22 08:49:56;;;;;;;13.48;6.65;;;13.50;99.90;;;;;;6230832;22;20019;-92
2021/06/22 08:52:32;;;;;;;14.32;5.32;;;13.90;99.90;;;;;;6229480;22;20023;-92
2021/06/22 08:55:25;;;;;;;17.80;7.65;;;14.00;99.90;;;;;;6206635;22;20039;-92
2021/06/22 08:58:06;;;;;;;15.77;5.80;;;14.10;99.90;;;;;;6228470;22;20045;-91
2021/06/22 09:00:39;;;;;;;17.58;6.78;;;14.20;99.90;;;;;;6227030;22;20026;-91
2021/06/22 09:03:23;;;;;;;15.88;6.32;;;14.30;99.90;;;;;;6231021;22;20020;-92
2021/06/22 09:05:58;;;;;;;19.52;6.05;;;14.40;99.90;;;;;;6256788;22;20046;-92
2021/06/22 09:08:37;;;;;;;18.95;6.03;;;14.50;99.90;;;;;;6229977;22;20020;-92
2021/06/22 09:11:20;;;;;;;12.45;5.65;;;14.60;99.90;;;;;;6206336;22;20022;-92
2021/06/22 09:14:00;;;;;;;13.38;4.93;;;14.80;99.90;;;;;;6231807;22;20034;-92
2021/06/22 09:16:31;;;;;;;14.65;4.63;;;14.80;99.90;;;;;;6253381;22;20020;-92
2021/06/22 09:19:05;;;;;;;15.40;4.95;;;14.90;99.90;;;;;;6227801;22;20028;-91
2021/06/22 09:21:47;;;;;;;8.88;4.10;;;15.00;99.90;;;;;;6276624;22;20019;-90
2021/06/22 09:24:26;;;;;;;13.20;4.45;;;15.10;99.90;;;;;;6223099;22;20019;-90
2021/06/22 09:27:06;;;;;;;9.98;3.10;;;15.10;99.90;;;;;;6202310;22;20558;-91
2021/06/22 09:29:50;;;;;;;13.38;4.05;;;15.10;99.90;;;;;;6221564;22;20020;-91
2021/06/22 09:32:37;;;;;;;15.73;4.93;;;15.10;99.90;;;;;;6243125;22;20019;-92
2021/06/22 09:35:22;;;;;;;10.93;3.83;;;15.10;99.90;;;;;;6218469;22;20016;-91
2021/06/22 09:37:54;;;;;;;18.10;4.90;;;15.20;99.90;;;;;;6220522;22;20415;-89
2021/06/22 09:40:28;;;;;;;10.23;3.77;;;15.10;99.90;;;;;;6246349;22;20022;-89
2021/06/22 09:43:11;;;;;;;16.25;3.75;;;15.20;99.90;;;;;;6219784;22;20024;-89
2021/06/22 09:45:55;;;;;;;11.10;3.60;;;15.20;99.90;;;;;;6222542;22;20111;-90
2021/06/22 09:49:00;;;;;;;14.63;3.78;;;15.20;99.90;;;;;;6246948;22;20493;-89
2021/06/22 09:51:40;;;;;;;8.55;3.08;;;14.50;99.90;;;;;;6221682;22;20019;-90
2021/06/22 09:54:27;;;;;;;12.80;4.22;;;15.10;99.90;;;;;;6273621;22;20023;-90
2021/06/22 09:56:55;;;;;;;;;;;15.20;99.90;;;;;;6251517;22;20347;-89
2021/06/22 09:59:25;;;;;;;17.13;4.97;;;15.30;99.90;;;;;;6204041;22;19919;-91
2021/06/22 10:02:08;;;;;;;11.25;3.47;;;15.40;99.90;;;;;;6234361;22;20030;-90
2021/06/22 10:04:42;;;;;;;11.93;3.00;;;15.70;99.90;;;;;;6232398;22;20016;-91
2021/06/22 10:07:31;;;;;;;7.35;2.97;;;16.00;99.90;;;;;;6215410;22;20343;-90
2021/06/22 10:10:15;;;;;;;10.50;3.25;;;16.30;99.90;;;;;;6230505;22;20022;-91
2021/06/22 10:12:49;;;;;;;9.35;3.42;;;16.60;99.90;;;;;;6262281;22;20027;-94
2021/06/22 10:15:23;;;;;;;8.43;2.97;;;16.60;99.90;;;;;;6242919;22;20026;-90
2021/06/22 10:17:52;;;;;;;;;;;16.80;99.90;;;;;;6219529;23;20025;-79
2021/06/22 10:20:23;;;;;;;13.82;2.35;;;17.10;99.90;;;;;;6142584;23;19923;-80
2021/06/22 10:22:51;;;;;;;9.10;2.10;;;17.00;99.90;;;;;;6165185;23;20431;-80
2021/06/22 10:25:19;;;;;;;10.40;2.33;;;17.10;99.90;;;;;;6166463;23;20023;-80
2021/06/22 10:27:52;;;;;;;7.55;2.35;;;17.10;99.90;;;;;;6165286;23;20054;-81
2021/06/22 10:30:23;;;;;;;11.80;2.53;;;17.20;99.90;;;;;;6167332;23;20044;-80
2021/06/22 10:32:51;;;;;;;10.13;2.72;;;17.30;99.90;;;;;;6202546;23;20029;-81
2021/06/22 10:35:20;;;;;;;6.15;1.70;;;17.20;99.90;;;;;;6191569;23;20035;-81
2021/06/22 10:37:58;;;;;;;7.63;1.75;;;17.10;99.90;;;;;;6191893;23;20025;-80
2021/06/22 10:40:30;;;;;;;4.45;2.05;;;17.00;99.90;;;;;;6167082;23;20028;-80
2021/06/22 10:43:01;;;;;;;;;;;16.80;99.90;;;;;;6141933;23;20028;-80
2021/06/22 10:46:07;;;;;;;6.13;1.70;;;16.70;99.90;;;;;;6166467;23;19926;-81
2021/06/22 10:48:41;;;;;;;6.53;1.73;;;16.50;99.90;;;;;;6194066;23;20031;-81
2021/06/22 10:51:30;;;;;;;8.18;1.65;;;16.40;99.90;;;;;;6191132;23;20031;-80
2021/06/22 10:53:59;;;;;;;5.43;1.42;;;16.30;99.90;;;;;;6196381;23;20032;-80
2021/06/22 10:56:29;;;;;;;7.30;1.75;;;16.30;99.90;;;;;;6189418;23;20025;-81
2021/06/22 10:59:12;;;;;;;7.43;1.45;;;16.30;99.90;;;;;;6190901;23;20023;-81
2021/06/22 11:01:54;;;;;;;6.15;1.35;;;16.30;99.90;;;;;;6189560;23;20036;-81
2021/06/22 11:04:23;;;;;;;9.55;1.63;;;16.40;99.90;;;;;;6191758;23;20027;-81
2021/06/22 11:07:21;;;;;;;4.88;1.35;;;16.50;99.90;;;;;;6200522;23;20439;-82
2021/06/22 11:10:12;;;;;;;11.38;2.47;;;16.60;99.90;;;;;;6175614;23;20039;-78
2021/06/22 11:12:48;;;;;;;4.55;2.47;;;16.70;99.90;;;;;;6139961;23;20375;-80
2021/06/22 11:15:17;;;;;;;2.38;1.30;;;16.80;99.90;;;;;;6189431;23;20035;-81
2021/06/22 11:17:47;;;;;;;1.83;1.20;;;16.90;99.90;;;;;;6189450;23;20028;-81
2021/06/22 11:20:18;;;;;;;4.47;1.55;;;17.00;99.90;;;;;;6141668;23;20021;-83
2021/06/22 11:23:02;;;;;;;9.65;3.08;;;17.20;99.90;;;;;;6165747;23;20025;-83
2021/06/22 11:25:58;;;;;;;6.50;1.73;;;17.30;99.90;;;;;;6190236;23;20028;-83
2021/06/22 11:28:27;;;;;;;6.63;1.48;;;17.50;99.90;;;;;;6164743;23;20024;-84
2021/06/22 11:31:00;;;;;;;3.47;1.45;;;17.70;99.90;;;;;;6175831;23;20277;-83
2021/06/22 11:33:29;;;;;;;7.78;1.15;;;18.00;99.90;;;;;;6165417;23;20021;-83
2021/06/22 11:36:16;;;;;;;3.42;0.98;;;18.10;99.90;;;;;;6202407;23;20017;-82
2021/06/22 11:39:16;;;;;;;4.80;1.20;;;18.30;99.90;;;;;;6167074;23;20045;-83
2021/06/22 11:42:14;;;;;;;3.17;1.77;;;18.30;99.90;;;;;;6167750;23;20036;-83
2021/06/22 11:45:05;;;;;;;4.78;1.65;;;18.10;99.90;;;;;;6170122;23;20021;-83
2021/06/22 11:47:34;;;;;;;7.38;1.67;;;18.00;99.90;;;;;;6167542;23;20021;-83
2021/06/22 11:50:12;;;;;;;6.38;1.13;;;17.80;99.90;;;;;;6166299;23;20017;-83
2021/06/22 11:52:46;;;;;;;10.07;1.50;;;17.80;99.90;;;;;;6162951;23;20035;-84
2021/06/22 11:55:21;;;;;;;12.30;1.67;;;17.20;99.90;;;;;;6164545;23;20028;-82
2021/06/22 11:57:56;;;;;;;14.77;1.70;;;17.80;99.90;;;;;;6142562;23;20028;-83
2021/06/22 12:00:32;;;;;;;5.90;1.60;;;17.80;99.90;;;;;;6203263;23;20021;-83
2021/06/22 12:03:08;;;;;;;6.95;2.28;;;18.00;99.90;;;;;;6160642;23;20017;-83
2021/06/22 12:05:38;;;;;;;5.55;1.40;;;18.10;99.90;;;;;;6139518;23;20029;-83
2021/06/22 12:08:08;;;;;;;5.72;1.70;;;18.30;99.90;;;;;;6191654;23;20017;-83
2021/06/22 12:10:40;;;;;;;7.13;2.20;;;18.40;99.90;;;;;;6192877;23;20017;-84
2021/06/22 12:13:10;;;;;;;6.22;1.17;;;18.50;99.90;;;;;;6142036;23;20029;-83
2021/06/22 12:15:41;;;;;;;6.70;1.60;;;18.60;99.90;;;;;;6203435;23;20029;-84
2021/06/22 12:18:10;;;;;;;5.82;2.83;;;18.70;99.90;;;;;;6130478;23;20026;-83
2021/06/22 12:20:41;;;;;;;11.32;1.70;;;18.70;99.90;;;;;;6136064;23;20036;-84
2021/06/22 12:23:11;;;;;;;9.73;2.80;;;18.60;99.90;;;;;;6161289;23;20022;-82
2021/06/22 12:25:41;;;;;;;6.97;1.65;;;18.50;99.90;;;;;;6162602;23;20086;-83
2021/06/22 12:28:10;;;;;;;5.43;2.55;;;18.50;99.90;;;;;;6162775;23;20028;-83
2021/06/22 12:30:42;;;;;;;6.85;1.20;;;18.50;99.90;;;;;;6137390;23;20043;-84
2021/06/22 12:33:14;;;;;;;5.70;1.50;;;18.60;99.90;;;;;;6165017;23;20026;-84
2021/06/22 12:35:46;;;;;;;9.05;1.90;;;18.60;99.60;;;;;;6165179;23;20028;-84
2021/06/22 12:38:16;;;;;;;6.20;1.52;;;18.70;99.90;;;;;;6164279;23;20036;-84
2021/06/22 12:40:59;;;;;;;5.18;1.38;;;18.90;99.90;;;;;;6167606;23;20025;-84
2021/06/22 12:43:49;;;;;;;12.63;1.65;;;19.10;99.50;;;;;;6172490;23;20033;-84
2021/06/22 12:46:26;;;;;;;5.63;1.50;;;19.20;99.60;;;;;;6139950;23;20021;-83
2021/06/22 12:49:00;;;;;;;15.48;4.20;;;19.30;99.30;;;;;;6174497;23;20028;-85
2021/06/22 12:51:33;;;;;;;7.72;1.40;;;19.30;99.30;;;;;;6113906;23;20032;-83
2021/06/22 12:54:04;;;;;;;5.82;1.10;;;19.20;98.00;;;;;;6162703;23;20020;-83
2021/06/22 12:56:48;;;;;;;7.38;1.58;;;19.00;98.20;;;;;;6162810;23;20027;-84
2021/06/22 12:59:21;;;;;;;4.43;1.45;;;18.90;97.60;;;;;;6162164;23;20017;-84
2021/06/22 13:01:51;;;;;;;4.70;1.10;;;18.80;98.70;;;;;;6113552;23;20025;-83
2021/06/22 13:04:22;;;;;;;2.60;1.52;;;18.80;98.20;;;;;;6112738;23;20210;-83
2021/06/22 13:06:52;;;;;;;11.18;1.38;;;18.90;98.90;;;;;;6164729;23;20027;-84
2021/06/22 13:09:22;;;;;;;6.68;1.15;;;19.10;98.50;;;;;;6160212;23;20482;-84
2021/06/22 13:11:54;;;;;;;11.18;1.30;;;19.20;97.60;;;;;;6135224;23;20043;-80